| time (UTC) | temp C | wind direction | speed KPH | gust KPH | rain 1hr cm | rain 24hr cm | rain mn cm | humidity % | barometer mb |
| 20260506131605 | 25 | 180 | 6.4 | 14.5 | 0.00 | 0.00 | 0.00 | 41 | 1014.2 |
| 20260506130051 | 26 | 82 | 8.0 | 17.7 | 0.00 | 0.00 | 0.00 | 40 | 1014.2 |
| 20260506124550 | 25 | 140 | 3.2 | 16.1 | 0.00 | 0.00 | 0.00 | 44 | 1014.2 |
| 20260506123051 | 25 | 175 | 1.6 | 6.4 | 0.00 | 0.00 | 0.00 | 44 | 1014.3 |
| 20260506121550 | 25 | 132 | 3.2 | 12.9 | 0.00 | 0.00 | 0.00 | 46 | 1014.5 |
| 20260506120050 | 25 | 227 | 6.4 | 11.3 | 0.00 | 0.00 | 0.00 | 43 | 1014.5 |
| 20260506114548 | 25 | 139 | 1.6 | 11.3 | 0.00 | 0.00 | 0.00 | 45 | 1014.7 |
| 20260506113039 | 25 | 200 | 3.2 | 12.9 | 0.00 | 0.00 | 0.00 | 42 | 1014.8 |
| 20260506111539 | 25 | 176 | 0.0 | 9.7 | 0.00 | 0.00 | 0.00 | 41 | 1015.0 |
| 20260506110035 | 25 | 231 | 4.8 | 9.7 | 0.00 | 0.00 | 0.00 | 46 | 1015.2 |
| 20260506104536 | 24 | 130 | 3.2 | 6.4 | 0.00 | 0.00 | 0.00 | 45 | 1015.3 |
| 20260506103032 | 23 | 335 | 1.6 | 12.9 | 0.00 | 0.00 | 0.00 | 49 | 1015.4 |
| 20260506101526 | 23 | 343 | 1.6 | 8.0 | 0.00 | 0.00 | 0.00 | 49 | 1015.5 |
| 20260506100025 | 23 | 112 | 0.0 | 8.0 | 0.00 | 0.00 | 0.00 | 50 | 1015.8 |
| 20260506094522 | 23 | 257 | 1.6 | 8.0 | 0.00 | 0.00 | 0.00 | 50 | 1016.0 |
| 20260506093018 | 22 | 173 | 3.2 | 8.0 | 0.00 | 0.00 | 0.00 | 52 | 1016.1 |
| 20260506091520 | 22 | 134 | 1.6 | 4.8 | 0.00 | 0.00 | 0.00 | 48 | 1016.1 |
| 20260506090011 | 21 | 102 | 3.2 | 9.7 | 0.00 | 0.00 | 0.00 | 49 | 1016.1 |
| 20260506084509 | 21 | 89 | 1.6 | 9.7 | 0.00 | 0.00 | 0.00 | 52 | 1016.2 |
| 20260506083005 | 21 | 46 | 1.6 | 9.7 | 0.00 | 0.00 | 0.00 | 51 | 1016.1 |
| 20260506081502 | 20 | 232 | 1.6 | 6.4 | 0.00 | 0.00 | 0.00 | 51 | 1016.1 |
| 20260506073053 | 18 | 103 | 3.2 | 6.4 | 0.00 | 0.00 | 0.00 | 59 | 1016.2 |
| 20260506071556 | 18 | 284 | 0.0 | 3.2 | 0.00 | 0.00 | 0.00 | 63 | 1016.3 |
| 20260506061534 | 15 | 69 | 0.0 | 4.8 | 0.00 | 0.00 | 0.00 | 78 | 1016.6 |
| 20260506044527 | 8 | 240 | 0.0 | 4.8 | 0.00 | 0.00 | 0.00 | 94 | 1016.7 |
| 20260506043014 | 7 | 240 | 0.0 | 3.2 | 0.00 | 0.00 | 0.00 | 94 | 1016.7 |
| 20260506041512 | 6 | 292 | 0.0 | 0.0 | 0.00 | 0.00 | 0.00 | 94 | 1016.7 |
| 20260506040009 | 6 | 292 | 0.0 | 1.6 | 0.00 | 0.00 | 0.00 | 94 | 1016.6 |
| 20260506034508 | 6 | 324 | 0.0 | 0.0 | 0.00 | 0.00 | 0.00 | 94 | 1016.4 |
| 20260506033006 | 6 | 324 | 0.0 | 1.6 | 0.00 | 0.00 | 0.00 | 94 | 1016.2 |
| 20260506031514 | 6 | 257 | 0.0 | 0.0 | 0.00 | 0.00 | 0.00 | 94 | 1016.1 |
| 20260506030000 | 6 | 257 | 0.0 | 0.0 | 0.00 | 0.00 | 0.00 | 94 | 1016.0 |
| 20260506024600 | 6 | 257 | 0.0 | 0.0 | 0.00 | 0.00 | 0.00 | 94 | 1015.7 |
| 20260506023057 | 6 | 257 | 0.0 | 0.0 | 0.00 | 0.00 | 0.00 | 93 | 1015.8 |
| 20260506021600 | 7 | 247 | 0.0 | 0.0 | 0.00 | 0.00 | 0.00 | 93 | 1015.9 |
| 20260506020054 | 7 | 247 | 0.0 | 0.0 | 0.00 | 0.00 | 0.00 | 94 | 1015.8 |
| 20260506014559 | 7 | 247 | 0.0 | 0.0 | 0.00 | 0.00 | 0.00 | 93 | 1016.0 |
| 20260506013054 | 7 | 247 | 0.0 | 0.0 | 0.00 | 0.00 | 0.00 | 93 | 1016.0 |
| 20260506011549 | 7 | 247 | 0.0 | 0.0 | 0.00 | 0.00 | 0.00 | 93 | 1015.9 |
| 20260506010052 | 8 | 247 | 0.0 | 0.0 | 0.00 | 0.00 | 0.00 | 93 | 1015.8 |
| 20260506004550 | 8 | 247 | 0.0 | 0.0 | 0.00 | 0.00 | 0.00 | 93 | 1015.9 |
| 20260506003043 | 8 | 247 | 0.0 | 3.2 | 0.00 | 0.00 | 0.00 | 92 | 1015.8 |
| 20260506001540 | 9 | 44 | 0.0 | 0.0 | 0.00 | 0.00 | 0.00 | 92 | 1015.9 |
| 20260506000040 | 9 | 71 | 0.0 | 0.0 | 0.00 | 0.00 | 0.00 | 92 | 1015.9 |
| 20260505234539 | 9 | 71 | 0.0 | 0.0 | 0.00 | 0.00 | 0.00 | 92 | 1016.0 |
| 20260505233037 | 9 | 78 | 0.0 | 0.0 | 0.00 | 0.00 | 0.00 | 92 | 1016.0 |
| 20260505231536 | 9 | 77 | 0.0 | 1.6 | 0.00 | 0.00 | 0.00 | 92 | 1016.0 |
| 20260505230044 | 9 | 227 | 0.0 | 3.2 | 0.00 | 0.00 | 0.00 | 91 | 1016.0 |
| 20260505224536 | 10 | 208 | 0.0 | 0.0 | 0.00 | 0.00 | 0.00 | 91 | 1016.1 |
| 20260505223029 | 10 | 208 | 0.0 | 3.2 | 0.00 | 0.00 | 0.00 | 90 | 1016.0 |
| 20260505221527 | 10 | 259 | 0.0 | 3.2 | 0.00 | 0.00 | 0.00 | 89 | 1015.9 |
| 20260505220027 | 11 | 279 | 0.0 | 0.0 | 0.00 | 0.00 | 0.00 | 88 | 1016.0 |
| 20260505214523 | 11 | 299 | 1.6 | 3.2 | 0.00 | 0.00 | 0.00 | 86 | 1015.7 |
| 20260505213021 | 12 | 271 | 0.0 | 1.6 | 0.00 | 0.00 | 0.00 | 86 | 1015.7 |
| 20260505211523 | 12 | 269 | 0.0 | 3.2 | 0.00 | 0.00 | 0.00 | 84 | 1015.5 |
| 20260505210022 | 12 | 290 | 1.6 | 4.8 | 0.00 | 0.00 | 0.00 | 82 | 1015.4 |
| 20260505204522 | 12 | 275 | 0.0 | 4.8 | 0.00 | 0.00 | 0.00 | 84 | 1015.2 |
| 20260505203026 | 13 | 257 | 0.0 | 4.8 | 0.00 | 0.00 | 0.00 | 81 | 1015.2 |
| 20260505201519 | 15 | 290 | 0.0 | 6.4 | 0.00 | 0.00 | 0.00 | 76 | 1014.9 |
| 20260505200019 | 13 | 196 | 4.8 | 9.7 | 0.00 | 0.00 | 0.00 | 81 | 1014.6 |
| 20260505194522 | 13 | 178 | 1.6 | 4.8 | 0.00 | 0.00 | 0.00 | 81 | 1014.5 |
| 20260505193017 | 13 | 244 | 1.6 | 6.4 | 0.00 | 0.00 | 0.00 | 83 | 1014.1 |
| 20260505191517 | 13 | 279 | 0.0 | 4.8 | 0.00 | 0.00 | 0.00 | 84 | 1013.9 |
| 20260505190028 | 13 | 184 | 0.0 | 3.2 | 0.00 | 0.00 | 0.00 | 84 | 1013.8 |
| 20260505184523 | 13 | 68 | 0.0 | 3.2 | 0.00 | 0.00 | 0.00 | 83 | 1013.5 |
| 20260505183019 | 14 | 314 | 0.0 | 3.2 | 0.00 | 0.00 | 0.00 | 81 | 1013.5 |
| 20260505181514 | 14 | 229 | 1.6 | 3.2 | 0.00 | 0.00 | 0.00 | 82 | 1013.4 |
| 20260505180013 | 15 | 80 | 0.0 | 4.8 | 0.00 | 0.00 | 0.00 | 80 | 1013.2 |
| 20260505174512 | 16 | 242 | 0.0 | 3.2 | 0.00 | 0.00 | 0.00 | 76 | 1013.0 |
| 20260505173012 | 17 | 300 | 0.0 | 3.2 | 0.00 | 0.00 | 0.00 | 73 | 1012.9 |
| 20260505171511 | 18 | 232 | 0.0 | 4.8 | 0.00 | 0.00 | 0.00 | 67 | 1013.0 |
| 20260505170010 | 19 | 278 | 0.0 | 4.8 | 0.00 | 0.00 | 0.00 | 62 | 1012.9 |
| 20260505164510 | 20 | 264 | 0.0 | 1.6 | 0.00 | 0.00 | 0.00 | 62 | 1012.8 |
| 20260505163009 | 23 | 202 | 0.0 | 8.0 | 0.00 | 0.00 | 0.00 | 46 | 1012.7 |
| 20260505161507 | 24 | 146 | 1.6 | 9.7 | 0.00 | 0.00 | 0.00 | 39 | 1012.6 |
| 20260505153004 | 26 | 153 | 0.0 | 8.0 | 0.00 | 0.00 | 0.00 | 33 | 1012.6 |
| 20260505151502 | 26 | 145 | 3.2 | 11.3 | 0.00 | 0.00 | 0.00 | 31 | 1012.6 |